sensor_id;sensor_type;location;lat;lon;timestamp;temperature;humidity
56172;DHT22;42052;41.634;-0.946;2023-08-12T00:00:30;25.60;40.50
56172;DHT22;42052;41.634;-0.946;2023-08-12T00:02:55;25.60;40.70
56172;DHT22;42052;41.634;-0.946;2023-08-12T00:05:22;25.60;41.10
56172;DHT22;42052;41.634;-0.946;2023-08-12T00:07:48;25.60;41.10
56172;DHT22;42052;41.634;-0.946;2023-08-12T00:10:14;25.60;41.20
56172;DHT22;42052;41.634;-0.946;2023-08-12T00:12:40;25.60;41.40
56172;DHT22;42052;41.634;-0.946;2023-08-12T00:15:07;25.60;41.60
56172;DHT22;42052;41.634;-0.946;2023-08-12T00:17:33;25.60;41.80
56172;DHT22;42052;41.634;-0.946;2023-08-12T00:20:01;25.70;42.10
56172;DHT22;42052;41.634;-0.946;2023-08-12T00:22:31;25.80;42.40
56172;DHT22;42052;41.634;-0.946;2023-08-12T00:24:57;25.80;42.70
56172;DHT22;42052;41.634;-0.946;2023-08-12T00:27:22;25.90;42.40
56172;DHT22;42052;41.634;-0.946;2023-08-12T00:29:48;26.00;42.70
56172;DHT22;42052;41.634;-0.946;2023-08-12T00:32:15;26.00;42.90
56172;DHT22;42052;41.634;-0.946;2023-08-12T00:34:41;26.00;42.90
56172;DHT22;42052;41.634;-0.946;2023-08-12T00:37:06;26.10;42.80
56172;DHT22;42052;41.634;-0.946;2023-08-12T00:39:32;26.20;42.90
56172;DHT22;42052;41.634;-0.946;2023-08-12T00:41:58;26.20;43.30
56172;DHT22;42052;41.634;-0.946;2023-08-12T00:44:24;26.30;43.10
56172;DHT22;42052;41.634;-0.946;2023-08-12T00:46:50;26.30;43.20
56172;DHT22;42052;41.634;-0.946;2023-08-12T00:49:16;26.40;43.30
56172;DHT22;42052;41.634;-0.946;2023-08-12T00:51:44;26.40;43.40
56172;DHT22;42052;41.634;-0.946;2023-08-12T00:54:16;26.40;43.40
56172;DHT22;42052;41.634;-0.946;2023-08-12T00:56:43;26.50;43.50
56172;DHT22;42052;41.634;-0.946;2023-08-12T00:59:09;26.50;43.60
56172;DHT22;42052;41.634;-0.946;2023-08-12T01:01:40;26.60;43.80
56172;DHT22;42052;41.634;-0.946;2023-08-12T01:04:07;26.60;43.90
56172;DHT22;42052;41.634;-0.946;2023-08-12T01:06:33;26.60;43.90
56172;DHT22;42052;41.634;-0.946;2023-08-12T01:08:59;26.60;44.00
56172;DHT22;42052;41.634;-0.946;2023-08-12T01:11:29;26.60;43.90
56172;DHT22;42052;41.634;-0.946;2023-08-12T01:14:07;26.70;44.00
56172;DHT22;42052;41.634;-0.946;2023-08-12T01:16:40;26.70;44.20
56172;DHT22;42052;41.634;-0.946;2023-08-12T01:19:12;26.80;44.20
56172;DHT22;42052;41.634;-0.946;2023-08-12T01:21:44;26.80;44.20
56172;DHT22;42052;41.634;-0.946;2023-08-12T01:24:11;26.80;44.20
56172;DHT22;42052;41.634;-0.946;2023-08-12T01:26:37;26.80;44.30
56172;DHT22;42052;41.634;-0.946;2023-08-12T01:29:03;26.80;44.40
56172;DHT22;42052;41.634;-0.946;2023-08-12T01:31:37;26.80;44.40
56172;DHT22;42052;41.634;-0.946;2023-08-12T01:36:37;26.90;44.50
56172;DHT22;42052;41.634;-0.946;2023-08-12T01:39:05;26.90;44.50
56172;DHT22;42052;41.634;-0.946;2023-08-12T01:41:33;26.90;44.60
56172;DHT22;42052;41.634;-0.946;2023-08-12T01:43:59;26.90;44.50
56172;DHT22;42052;41.634;-0.946;2023-08-12T01:46:24;27.00;44.60
56172;DHT22;42052;41.634;-0.946;2023-08-12T01:48:50;27.00;44.80
56172;DHT22;42052;41.634;-0.946;2023-08-12T01:51:16;27.00;44.80
56172;DHT22;42052;41.634;-0.946;2023-08-12T01:53:41;27.00;44.80
56172;DHT22;42052;41.634;-0.946;2023-08-12T01:56:07;27.00;44.80
56172;DHT22;42052;41.634;-0.946;2023-08-12T01:58:33;27.10;45.00
56172;DHT22;42052;41.634;-0.946;2023-08-12T02:00:59;27.10;45.10
56172;DHT22;42052;41.634;-0.946;2023-08-12T02:03:25;27.10;45.10
56172;DHT22;42052;41.634;-0.946;2023-08-12T02:05:50;27.10;45.00
56172;DHT22;42052;41.634;-0.946;2023-08-12T02:08:16;27.10;45.20
56172;DHT22;42052;41.634;-0.946;2023-08-12T02:10:42;27.10;45.20
56172;DHT22;42052;41.634;-0.946;2023-08-12T02:13:08;27.10;45.50
56172;DHT22;42052;41.634;-0.946;2023-08-12T02:15:34;27.10;46.20
56172;DHT22;42052;41.634;-0.946;2023-08-12T02:17:59;27.10;45.30
56172;DHT22;42052;41.634;-0.946;2023-08-12T02:20:25;27.10;45.70
56172;DHT22;42052;41.634;-0.946;2023-08-12T02:22:51;27.10;45.70
56172;DHT22;42052;41.634;-0.946;2023-08-12T02:25:19;27.10;45.60
56172;DHT22;42052;41.634;-0.946;2023-08-12T02:27:45;27.20;45.60
56172;DHT22;42052;41.634;-0.946;2023-08-12T02:30:11;27.20;45.60
56172;DHT22;42052;41.634;-0.946;2023-08-12T02:32:37;27.20;45.60
56172;DHT22;42052;41.634;-0.946;2023-08-12T02:35:03;27.20;45.80
56172;DHT22;42052;41.634;-0.946;2023-08-12T02:37:29;27.20;45.80
56172;DHT22;42052;41.634;-0.946;2023-08-12T02:39:54;27.20;45.90
56172;DHT22;42052;41.634;-0.946;2023-08-12T02:42:20;27.20;46.10
56172;DHT22;42052;41.634;-0.946;2023-08-12T02:44:46;27.20;46.80
56172;DHT22;42052;41.634;-0.946;2023-08-12T02:47:12;27.20;46.20
56172;DHT22;42052;41.634;-0.946;2023-08-12T02:49:37;27.20;46.20
56172;DHT22;42052;41.634;-0.946;2023-08-12T02:52:03;27.20;46.20
56172;DHT22;42052;41.634;-0.946;2023-08-12T02:54:29;27.20;46.30
56172;DHT22;42052;41.634;-0.946;2023-08-12T02:56:55;27.30;46.30
56172;DHT22;42052;41.634;-0.946;2023-08-12T02:59:20;27.20;46.30
56172;DHT22;42052;41.634;-0.946;2023-08-12T03:01:50;27.20;46.20
56172;DHT22;42052;41.634;-0.946;2023-08-12T03:04:16;27.30;46.30
56172;DHT22;42052;41.634;-0.946;2023-08-12T03:06:41;27.30;46.50
56172;DHT22;42052;41.634;-0.946;2023-08-12T03:09:07;27.30;46.50
56172;DHT22;42052;41.634;-0.946;2023-08-12T03:11:33;27.30;46.60
56172;DHT22;42052;41.634;-0.946;2023-08-12T03:14:01;27.30;46.70
56172;DHT22;42052;41.634;-0.946;2023-08-12T03:16:27;27.30;46.70
56172;DHT22;42052;41.634;-0.946;2023-08-12T03:18:53;27.30;46.70
56172;DHT22;42052;41.634;-0.946;2023-08-12T03:21:18;27.30;46.80
56172;DHT22;42052;41.634;-0.946;2023-08-12T03:23:44;27.30;46.70
56172;DHT22;42052;41.634;-0.946;2023-08-12T03:26:10;27.30;46.60
56172;DHT22;42052;41.634;-0.946;2023-08-12T03:28:36;27.30;46.70
56172;DHT22;42052;41.634;-0.946;2023-08-12T03:31:02;27.30;46.50
56172;DHT22;42052;41.634;-0.946;2023-08-12T03:33:28;27.30;46.70
56172;DHT22;42052;41.634;-0.946;2023-08-12T03:35:54;27.30;46.80
56172;DHT22;42052;41.634;-0.946;2023-08-12T03:38:20;27.30;46.80
56172;DHT22;42052;41.634;-0.946;2023-08-12T03:40:46;27.30;46.60
56172;DHT22;42052;41.634;-0.946;2023-08-12T03:43:11;27.30;46.50
56172;DHT22;42052;41.634;-0.946;2023-08-12T03:45:41;27.30;46.70
56172;DHT22;42052;41.634;-0.946;2023-08-12T03:48:08;27.30;46.80
56172;DHT22;42052;41.634;-0.946;2023-08-12T03:50:35;27.30;46.60
56172;DHT22;42052;41.634;-0.946;2023-08-12T03:53:01;27.30;46.60
56172;DHT22;42052;41.634;-0.946;2023-08-12T03:55:29;27.30;46.80
56172;DHT22;42052;41.634;-0.946;2023-08-12T03:57:55;27.30;46.80
56172;DHT22;42052;41.634;-0.946;2023-08-12T04:00:21;27.30;46.70
56172;DHT22;42052;41.634;-0.946;2023-08-12T04:02:47;27.30;46.60
56172;DHT22;42052;41.634;-0.946;2023-08-12T04:05:12;27.30;46.70
56172;DHT22;42052;41.634;-0.946;2023-08-12T04:07:38;27.30;46.50
56172;DHT22;42052;41.634;-0.946;2023-08-12T04:10:04;27.40;46.60
56172;DHT22;42052;41.634;-0.946;2023-08-12T04:12:30;27.40;46.50
56172;DHT22;42052;41.634;-0.946;2023-08-12T04:14:56;27.30;46.30
56172;DHT22;42052;41.634;-0.946;2023-08-12T04:17:22;27.40;46.30
56172;DHT22;42052;41.634;-0.946;2023-08-12T04:19:48;27.30;46.30
56172;DHT22;42052;41.634;-0.946;2023-08-12T04:22:14;27.40;46.20
56172;DHT22;42052;41.634;-0.946;2023-08-12T04:24:40;27.40;46.20
56172;DHT22;42052;41.634;-0.946;2023-08-12T04:27:06;27.40;46.20
56172;DHT22;42052;41.634;-0.946;2023-08-12T04:29:32;27.40;46.10
56172;DHT22;42052;41.634;-0.946;2023-08-12T04:31:57;27.40;46.20
56172;DHT22;42052;41.634;-0.946;2023-08-12T04:34:23;27.40;46.20
56172;DHT22;42052;41.634;-0.946;2023-08-12T04:36:49;27.40;46.00
56172;DHT22;42052;41.634;-0.946;2023-08-12T04:39:14;27.40;46.90
56172;DHT22;42052;41.634;-0.946;2023-08-12T04:41:40;27.40;46.20
56172;DHT22;42052;41.634;-0.946;2023-08-12T04:44:06;27.40;46.30
56172;DHT22;42052;41.634;-0.946;2023-08-12T04:46:32;27.40;46.30
56172;DHT22;42052;41.634;-0.946;2023-08-12T04:48:58;27.40;46.30
56172;DHT22;42052;41.634;-0.946;2023-08-12T04:51:24;27.40;46.30
56172;DHT22;42052;41.634;-0.946;2023-08-12T04:53:50;27.40;46.30
56172;DHT22;42052;41.634;-0.946;2023-08-12T04:56:16;27.40;46.30
56172;DHT22;42052;41.634;-0.946;2023-08-12T04:58:42;27.40;46.30
56172;DHT22;42052;41.634;-0.946;2023-08-12T05:01:08;27.40;46.20
56172;DHT22;42052;41.634;-0.946;2023-08-12T05:03:34;27.40;46.20
56172;DHT22;42052;41.634;-0.946;2023-08-12T05:06:00;27.40;46.10
56172;DHT22;42052;41.634;-0.946;2023-08-12T05:08:26;27.40;46.20
56172;DHT22;42052;41.634;-0.946;2023-08-12T05:10:54;27.40;46.10
56172;DHT22;42052;41.634;-0.946;2023-08-12T05:13:20;27.40;46.00
56172;DHT22;42052;41.634;-0.946;2023-08-12T05:15:46;27.40;46.00
56172;DHT22;42052;41.634;-0.946;2023-08-12T05:18:15;27.40;46.10
56172;DHT22;42052;41.634;-0.946;2023-08-12T05:20:42;27.40;46.00
56172;DHT22;42052;41.634;-0.946;2023-08-12T05:23:08;27.40;46.00
56172;DHT22;42052;41.634;-0.946;2023-08-12T05:25:34;27.40;46.00
56172;DHT22;42052;41.634;-0.946;2023-08-12T05:28:00;27.40;46.00
56172;DHT22;42052;41.634;-0.946;2023-08-12T05:30:26;27.40;46.00
56172;DHT22;42052;41.634;-0.946;2023-08-12T05:32:51;27.40;46.00
56172;DHT22;42052;41.634;-0.946;2023-08-12T05:35:17;27.40;46.00
56172;DHT22;42052;41.634;-0.946;2023-08-12T05:37:43;27.40;46.10
56172;DHT22;42052;41.634;-0.946;2023-08-12T05:40:09;27.50;46.00
56172;DHT22;42052;41.634;-0.946;2023-08-12T05:42:36;27.50;46.00
56172;DHT22;42052;41.634;-0.946;2023-08-12T05:45:02;27.50;46.00
56172;DHT22;42052;41.634;-0.946;2023-08-12T05:47:28;27.50;46.00
56172;DHT22;42052;41.634;-0.946;2023-08-12T05:49:54;27.50;46.10
56172;DHT22;42052;41.634;-0.946;2023-08-12T05:52:20;27.50;46.00
56172;DHT22;42052;41.634;-0.946;2023-08-12T05:54:46;27.40;46.00
56172;DHT22;42052;41.634;-0.946;2023-08-12T05:57:11;27.50;46.10
56172;DHT22;42052;41.634;-0.946;2023-08-12T05:59:37;27.50;46.00
56172;DHT22;42052;41.634;-0.946;2023-08-12T06:02:03;27.50;46.00
56172;DHT22;42052;41.634;-0.946;2023-08-12T06:04:29;27.50;46.10
56172;DHT22;42052;41.634;-0.946;2023-08-12T06:06:55;27.50;46.10
56172;DHT22;42052;41.634;-0.946;2023-08-12T06:09:21;27.50;46.10
56172;DHT22;42052;41.634;-0.946;2023-08-12T06:11:47;27.50;46.10
56172;DHT22;42052;41.634;-0.946;2023-08-12T06:14:13;27.50;46.10
56172;DHT22;42052;41.634;-0.946;2023-08-12T06:16:39;27.50;46.10
56172;DHT22;42052;41.634;-0.946;2023-08-12T06:19:05;27.50;46.10
56172;DHT22;42052;41.634;-0.946;2023-08-12T06:21:31;27.50;46.10
56172;DHT22;42052;41.634;-0.946;2023-08-12T06:23:59;27.50;46.10
56172;DHT22;42052;41.634;-0.946;2023-08-12T06:26:25;27.50;46.00
56172;DHT22;42052;41.634;-0.946;2023-08-12T06:28:51;27.50;46.10
56172;DHT22;42052;41.634;-0.946;2023-08-12T06:31:16;27.50;46.00
56172;DHT22;42052;41.634;-0.946;2023-08-12T06:33:42;27.50;46.00
56172;DHT22;42052;41.634;-0.946;2023-08-12T06:36:08;27.50;46.00
56172;DHT22;42052;41.634;-0.946;2023-08-12T06:38:34;27.50;46.80
56172;DHT22;42052;41.634;-0.946;2023-08-12T06:40:59;27.50;46.00
56172;DHT22;42052;41.634;-0.946;2023-08-12T06:43:25;27.60;46.10
56172;DHT22;42052;41.634;-0.946;2023-08-12T06:45:51;27.60;46.20
56172;DHT22;42052;41.634;-0.946;2023-08-12T06:48:16;27.60;46.20
56172;DHT22;42052;41.634;-0.946;2023-08-12T06:50:42;27.60;46.30
56172;DHT22;42052;41.634;-0.946;2023-08-12T06:53:09;27.60;46.40
56172;DHT22;42052;41.634;-0.946;2023-08-12T06:55:34;27.60;46.60
56172;DHT22;42052;41.634;-0.946;2023-08-12T06:58:00;27.60;46.80
56172;DHT22;42052;41.634;-0.946;2023-08-12T07:00:26;27.60;46.80
56172;DHT22;42052;41.634;-0.946;2023-08-12T07:02:52;27.60;46.60
56172;DHT22;42052;41.634;-0.946;2023-08-12T07:05:19;27.60;46.80
56172;DHT22;42052;41.634;-0.946;2023-08-12T07:07:45;27.60;46.90
56172;DHT22;42052;41.634;-0.946;2023-08-12T07:10:11;27.60;47.30
56172;DHT22;42052;41.634;-0.946;2023-08-12T07:12:36;27.60;47.20
56172;DHT22;42052;41.634;-0.946;2023-08-12T07:15:02;27.60;47.20
56172;DHT22;42052;41.634;-0.946;2023-08-12T07:17:28;27.60;47.00
56172;DHT22;42052;41.634;-0.946;2023-08-12T07:19:54;27.60;46.80
56172;DHT22;42052;41.634;-0.946;2023-08-12T07:22:20;27.60;46.80
56172;DHT22;42052;41.634;-0.946;2023-08-12T07:24:46;27.60;46.70
56172;DHT22;42052;41.634;-0.946;2023-08-12T07:27:11;27.60;46.70
56172;DHT22;42052;41.634;-0.946;2023-08-12T07:29:37;27.60;46.60
56172;DHT22;42052;41.634;-0.946;2023-08-12T07:32:03;27.60;46.50
56172;DHT22;42052;41.634;-0.946;2023-08-12T07:34:29;27.60;46.40
56172;DHT22;42052;41.634;-0.946;2023-08-12T07:36:55;27.60;46.30
56172;DHT22;42052;41.634;-0.946;2023-08-12T07:39:20;27.60;46.30
56172;DHT22;42052;41.634;-0.946;2023-08-12T07:41:46;27.60;46.20
56172;DHT22;42052;41.634;-0.946;2023-08-12T07:44:12;27.60;46.10
56172;DHT22;42052;41.634;-0.946;2023-08-12T07:46:38;27.60;46.20
56172;DHT22;42052;41.634;-0.946;2023-08-12T07:49:04;27.60;46.10
56172;DHT22;42052;41.634;-0.946;2023-08-12T07:51:30;27.60;46.10
56172;DHT22;42052;41.634;-0.946;2023-08-12T07:53:55;27.60;46.10
56172;DHT22;42052;41.634;-0.946;2023-08-12T07:56:21;27.60;46.00
56172;DHT22;42052;41.634;-0.946;2023-08-12T07:58:47;27.60;46.00
56172;DHT22;42052;41.634;-0.946;2023-08-12T08:01:13;27.70;46.10
56172;DHT22;42052;41.634;-0.946;2023-08-12T08:03:39;27.60;46.10
56172;DHT22;42052;41.634;-0.946;2023-08-12T08:06:05;27.70;46.10
56172;DHT22;42052;41.634;-0.946;2023-08-12T08:08:30;27.60;46.10
56172;DHT22;42052;41.634;-0.946;2023-08-12T08:10:56;27.70;46.20
56172;DHT22;42052;41.634;-0.946;2023-08-12T08:13:22;27.70;46.10
56172;DHT22;42052;41.634;-0.946;2023-08-12T08:15:48;27.70;46.10
56172;DHT22;42052;41.634;-0.946;2023-08-12T08:18:14;27.70;46.10
56172;DHT22;42052;41.634;-0.946;2023-08-12T08:20:42;27.70;46.00
56172;DHT22;42052;41.634;-0.946;2023-08-12T08:23:07;27.70;46.10
56172;DHT22;42052;41.634;-0.946;2023-08-12T08:25:33;27.70;46.10
56172;DHT22;42052;41.634;-0.946;2023-08-12T08:27:59;27.70;46.20
56172;DHT22;42052;41.634;-0.946;2023-08-12T08:30:25;27.70;46.10
56172;DHT22;42052;41.634;-0.946;2023-08-12T08:32:51;27.70;46.10
56172;DHT22;42052;41.634;-0.946;2023-08-12T08:35:17;27.70;46.10
56172;DHT22;42052;41.634;-0.946;2023-08-12T08:37:43;27.70;46.00
56172;DHT22;42052;41.634;-0.946;2023-08-12T08:40:09;27.70;46.10
56172;DHT22;42052;41.634;-0.946;2023-08-12T08:42:35;27.80;46.10
56172;DHT22;42052;41.634;-0.946;2023-08-12T08:45:03;27.80;46.10
56172;DHT22;42052;41.634;-0.946;2023-08-12T08:47:30;27.80;46.10
56172;DHT22;42052;41.634;-0.946;2023-08-12T08:49:57;27.80;46.20
56172;DHT22;42052;41.634;-0.946;2023-08-12T08:52:24;27.80;46.10
56172;DHT22;42052;41.634;-0.946;2023-08-12T08:54:50;27.80;46.20
56172;DHT22;42052;41.634;-0.946;2023-08-12T08:57:17;27.80;46.30
56172;DHT22;42052;41.634;-0.946;2023-08-12T08:59:43;27.80;46.40
56172;DHT22;42052;41.634;-0.946;2023-08-12T09:02:19;27.80;46.40
56172;DHT22;42052;41.634;-0.946;2023-08-12T09:04:46;27.80;46.40
56172;DHT22;42052;41.634;-0.946;2023-08-12T09:07:13;27.80;46.50
56172;DHT22;42052;41.634;-0.946;2023-08-12T09:09:46;27.80;46.50
56172;DHT22;42052;41.634;-0.946;2023-08-12T09:12:16;27.90;46.70
56172;DHT22;42052;41.634;-0.946;2023-08-12T09:14:43;27.90;46.70
56172;DHT22;42052;41.634;-0.946;2023-08-12T09:17:09;27.90;46.60
56172;DHT22;42052;41.634;-0.946;2023-08-12T09:19:35;27.90;46.70
56172;DHT22;42052;41.634;-0.946;2023-08-12T09:22:04;27.90;47.50
56172;DHT22;42052;41.634;-0.946;2023-08-12T09:24:31;27.90;47.60
56172;DHT22;42052;41.634;-0.946;2023-08-12T09:26:57;28.00;47.00
56172;DHT22;42052;41.634;-0.946;2023-08-12T09:29:33;28.00;47.00
56172;DHT22;42052;41.634;-0.946;2023-08-12T09:32:20;28.00;47.10
56172;DHT22;42052;41.634;-0.946;2023-08-12T09:34:53;28.00;47.20
56172;DHT22;42052;41.634;-0.946;2023-08-12T09:37:21;28.00;47.30
56172;DHT22;42052;41.634;-0.946;2023-08-12T09:39:47;28.00;47.40
56172;DHT22;42052;41.634;-0.946;2023-08-12T09:42:15;28.00;47.40
56172;DHT22;42052;41.634;-0.946;2023-08-12T09:44:41;28.00;48.30
56172;DHT22;42052;41.634;-0.946;2023-08-12T09:47:07;28.00;47.80
56172;DHT22;42052;41.634;-0.946;2023-08-12T09:49:38;28.10;47.70
56172;DHT22;42052;41.634;-0.946;2023-08-12T09:52:05;28.00;48.20
56172;DHT22;42052;41.634;-0.946;2023-08-12T09:54:32;28.00;48.00
56172;DHT22;42052;41.634;-0.946;2023-08-12T09:57:00;28.00;48.00
56172;DHT22;42052;41.634;-0.946;2023-08-12T09:59:33;28.10;48.00
56172;DHT22;42052;41.634;-0.946;2023-08-12T10:02:01;28.10;48.00
56172;DHT22;42052;41.634;-0.946;2023-08-12T10:04:38;28.00;47.80
56172;DHT22;42052;41.634;-0.946;2023-08-12T10:07:09;28.10;47.90
56172;DHT22;42052;41.634;-0.946;2023-08-12T10:09:39;28.10;47.90
56172;DHT22;42052;41.634;-0.946;2023-08-12T10:12:06;28.10;47.90
56172;DHT22;42052;41.634;-0.946;2023-08-12T10:14:33;28.10;47.80
56172;DHT22;42052;41.634;-0.946;2023-08-12T10:17:03;28.10;47.80
56172;DHT22;42052;41.634;-0.946;2023-08-12T10:19:30;28.10;47.80
56172;DHT22;42052;41.634;-0.946;2023-08-12T10:21:56;28.10;47.80
56172;DHT22;42052;41.634;-0.946;2023-08-12T10:24:26;28.10;47.70
56172;DHT22;42052;41.634;-0.946;2023-08-12T10:26:53;28.10;48.50
56172;DHT22;42052;41.634;-0.946;2023-08-12T10:29:20;28.10;47.60
56172;DHT22;42052;41.634;-0.946;2023-08-12T10:31:47;28.10;47.60
56172;DHT22;42052;41.634;-0.946;2023-08-12T10:34:21;28.10;46.80
56172;DHT22;42052;41.634;-0.946;2023-08-12T10:36:48;28.10;45.80
56172;DHT22;42052;41.634;-0.946;2023-08-12T10:39:21;28.00;44.50
56172;DHT22;42052;41.634;-0.946;2023-08-12T10:41:50;27.90;43.00
56172;DHT22;42052;41.634;-0.946;2023-08-12T10:44:21;27.70;42.00
56172;DHT22;42052;41.634;-0.946;2023-08-12T10:46:53;27.60;41.00
56172;DHT22;42052;41.634;-0.946;2023-08-12T10:49:21;27.50;39.70
56172;DHT22;42052;41.634;-0.946;2023-08-12T10:51:52;27.30;38.70
56172;DHT22;42052;41.634;-0.946;2023-08-12T10:59:53;26.90;37.50
56172;DHT22;42052;41.634;-0.946;2023-08-12T11:02:30;26.80;36.30
56172;DHT22;42052;41.634;-0.946;2023-08-12T11:05:04;26.80;36.30
56172;DHT22;42052;41.634;-0.946;2023-08-12T11:07:43;26.80;36.30
56172;DHT22;42052;41.634;-0.946;2023-08-12T11:10:18;26.70;36.20
56172;DHT22;42052;41.634;-0.946;2023-08-12T11:13:03;26.60;36.20
56172;DHT22;42052;41.634;-0.946;2023-08-12T11:15:44;26.60;36.50
56172;DHT22;42052;41.634;-0.946;2023-08-12T11:18:19;26.50;36.60
56172;DHT22;42052;41.634;-0.946;2023-08-12T11:20:49;26.40;36.70
56172;DHT22;42052;41.634;-0.946;2023-08-12T11:23:16;26.40;36.80
56172;DHT22;42052;41.634;-0.946;2023-08-12T11:25:43;26.40;37.00
56172;DHT22;42052;41.634;-0.946;2023-08-12T11:28:17;26.30;37.30
56172;DHT22;42052;41.634;-0.946;2023-08-12T11:30:43;26.30;37.90
56172;DHT22;42052;41.634;-0.946;2023-08-12T11:33:09;26.30;38.20
56172;DHT22;42052;41.634;-0.946;2023-08-12T11:35:35;26.40;38.50
56172;DHT22;42052;41.634;-0.946;2023-08-12T11:38:02;26.40;38.70
56172;DHT22;42052;41.634;-0.946;2023-08-12T11:40:28;26.40;38.80
56172;DHT22;42052;41.634;-0.946;2023-08-12T11:42:55;26.50;38.90
56172;DHT22;42052;41.634;-0.946;2023-08-12T11:45:24;26.60;39.10
56172;DHT22;42052;41.634;-0.946;2023-08-12T11:47:50;26.60;39.20
56172;DHT22;42052;41.634;-0.946;2023-08-12T11:50:20;26.60;39.30
56172;DHT22;42052;41.634;-0.946;2023-08-12T11:52:47;26.70;39.60
56172;DHT22;42052;41.634;-0.946;2023-08-12T11:55:13;26.80;39.60
56172;DHT22;42052;41.634;-0.946;2023-08-12T11:57:40;26.80;39.70
56172;DHT22;42052;41.634;-0.946;2023-08-12T12:00:08;26.80;39.80
56172;DHT22;42052;41.634;-0.946;2023-08-12T12:02:49;26.90;40.00
56172;DHT22;42052;41.634;-0.946;2023-08-12T12:05:16;26.90;40.00
56172;DHT22;42052;41.634;-0.946;2023-08-12T12:07:42;27.00;40.20
56172;DHT22;42052;41.634;-0.946;2023-08-12T12:10:13;27.00;40.20
56172;DHT22;42052;41.634;-0.946;2023-08-12T12:12:41;27.10;40.30
56172;DHT22;42052;41.634;-0.946;2023-08-12T12:15:07;27.10;40.40
56172;DHT22;42052;41.634;-0.946;2023-08-12T12:17:39;27.10;40.40
56172;DHT22;42052;41.634;-0.946;2023-08-12T12:20:07;27.20;40.60
56172;DHT22;42052;41.634;-0.946;2023-08-12T12:22:37;27.20;40.70
56172;DHT22;42052;41.634;-0.946;2023-08-12T12:25:08;27.20;40.70
56172;DHT22;42052;41.634;-0.946;2023-08-12T12:27:34;27.30;40.80
56172;DHT22;42052;41.634;-0.946;2023-08-12T12:30:01;27.30;40.90
56172;DHT22;42052;41.634;-0.946;2023-08-12T12:32:27;27.30;41.00
56172;DHT22;42052;41.634;-0.946;2023-08-12T12:34:52;27.30;40.90
56172;DHT22;42052;41.634;-0.946;2023-08-12T12:37:20;27.40;41.00
56172;DHT22;42052;41.634;-0.946;2023-08-12T12:39:46;27.40;41.10
56172;DHT22;42052;41.634;-0.946;2023-08-12T12:42:12;27.40;41.10
56172;DHT22;42052;41.634;-0.946;2023-08-12T12:44:38;27.40;41.30
56172;DHT22;42052;41.634;-0.946;2023-08-12T12:47:04;27.50;41.30
56172;DHT22;42052;41.634;-0.946;2023-08-12T12:49:30;27.50;41.40
56172;DHT22;42052;41.634;-0.946;2023-08-12T12:51:56;27.50;41.70
56172;DHT22;42052;41.634;-0.946;2023-08-12T12:54:22;27.50;41.50
56172;DHT22;42052;41.634;-0.946;2023-08-12T12:56:48;27.50;41.50
56172;DHT22;42052;41.634;-0.946;2023-08-12T12:59:13;27.60;41.60
56172;DHT22;42052;41.634;-0.946;2023-08-12T13:01:44;27.60;41.70
56172;DHT22;42052;41.634;-0.946;2023-08-12T13:04:10;27.60;41.70
56172;DHT22;42052;41.634;-0.946;2023-08-12T13:06:35;27.60;41.70
56172;DHT22;42052;41.634;-0.946;2023-08-12T13:09:01;27.60;41.70
56172;DHT22;42052;41.634;-0.946;2023-08-12T13:11:28;27.60;41.80
56172;DHT22;42052;41.634;-0.946;2023-08-12T13:13:54;27.70;41.90
56172;DHT22;42052;41.634;-0.946;2023-08-12T13:16:20;27.70;42.00
56172;DHT22;42052;41.634;-0.946;2023-08-12T13:18:46;27.70;42.00
56172;DHT22;42052;41.634;-0.946;2023-08-12T13:21:12;27.70;42.00
56172;DHT22;42052;41.634;-0.946;2023-08-12T13:23:38;27.70;42.00
56172;DHT22;42052;41.634;-0.946;2023-08-12T13:26:04;27.70;42.10
56172;DHT22;42052;41.634;-0.946;2023-08-12T13:28:29;27.70;42.10
56172;DHT22;42052;41.634;-0.946;2023-08-12T13:30:56;27.70;42.10
56172;DHT22;42052;41.634;-0.946;2023-08-12T13:33:22;27.80;42.20
56172;DHT22;42052;41.634;-0.946;2023-08-12T13:35:48;27.80;42.30
56172;DHT22;42052;41.634;-0.946;2023-08-12T13:38:15;27.80;42.30
56172;DHT22;42052;41.634;-0.946;2023-08-12T13:40:42;27.80;42.30
56172;DHT22;42052;41.634;-0.946;2023-08-12T13:43:08;27.80;42.30
56172;DHT22;42052;41.634;-0.946;2023-08-12T13:45:33;27.80;42.40
56172;DHT22;42052;41.634;-0.946;2023-08-12T13:47:59;27.80;42.40
56172;DHT22;42052;41.634;-0.946;2023-08-12T13:50:27;27.80;42.40
56172;DHT22;42052;41.634;-0.946;2023-08-12T13:52:53;27.80;42.50
56172;DHT22;42052;41.634;-0.946;2023-08-12T13:55:18;27.90;42.60
56172;DHT22;42052;41.634;-0.946;2023-08-12T13:57:44;27.90;42.60
56172;DHT22;42052;41.634;-0.946;2023-08-12T14:00:10;27.90;42.60
56172;DHT22;42052;41.634;-0.946;2023-08-12T14:02:38;27.90;42.70
56172;DHT22;42052;41.634;-0.946;2023-08-12T14:05:05;27.90;42.70
56172;DHT22;42052;41.634;-0.946;2023-08-12T14:07:31;27.90;42.70
56172;DHT22;42052;41.634;-0.946;2023-08-12T14:09:58;28.00;42.90
56172;DHT22;42052;41.634;-0.946;2023-08-12T14:12:26;28.00;42.90
56172;DHT22;42052;41.634;-0.946;2023-08-12T14:14:52;28.00;42.90
56172;DHT22;42052;41.634;-0.946;2023-08-12T14:17:18;28.00;42.90
56172;DHT22;42052;41.634;-0.946;2023-08-12T14:19:47;28.00;43.00
56172;DHT22;42052;41.634;-0.946;2023-08-12T14:22:13;28.00;43.00
56172;DHT22;42052;41.634;-0.946;2023-08-12T14:24:39;28.00;43.10
56172;DHT22;42052;41.634;-0.946;2023-08-12T14:27:05;28.00;43.10
56172;DHT22;42052;41.634;-0.946;2023-08-12T14:29:30;28.00;43.10
56172;DHT22;42052;41.634;-0.946;2023-08-12T14:31:57;28.00;43.20
56172;DHT22;42052;41.634;-0.946;2023-08-12T14:34:23;28.00;44.00
56172;DHT22;42052;41.634;-0.946;2023-08-12T14:36:49;28.00;43.30
56172;DHT22;42052;41.634;-0.946;2023-08-12T14:39:14;28.10;43.40
56172;DHT22;42052;41.634;-0.946;2023-08-12T14:41:40;28.00;43.40
56172;DHT22;42052;41.634;-0.946;2023-08-12T14:44:06;28.10;43.40
56172;DHT22;42052;41.634;-0.946;2023-08-12T14:46:32;28.10;43.50
56172;DHT22;42052;41.634;-0.946;2023-08-12T14:48:57;28.10;43.50
56172;DHT22;42052;41.634;-0.946;2023-08-12T14:51:23;28.10;43.50
56172;DHT22;42052;41.634;-0.946;2023-08-12T14:53:50;28.10;43.50
56172;DHT22;42052;41.634;-0.946;2023-08-12T14:56:16;28.10;43.50
56172;DHT22;42052;41.634;-0.946;2023-08-12T14:58:42;28.10;43.60
56172;DHT22;42052;41.634;-0.946;2023-08-12T15:01:08;28.10;43.60
56172;DHT22;42052;41.634;-0.946;2023-08-12T15:03:34;28.20;43.80
56172;DHT22;42052;41.634;-0.946;2023-08-12T15:06:01;28.10;43.70
56172;DHT22;42052;41.634;-0.946;2023-08-12T15:08:27;28.20;43.80
56172;DHT22;42052;41.634;-0.946;2023-08-12T15:10:54;28.10;43.80
56172;DHT22;42052;41.634;-0.946;2023-08-12T15:13:20;28.20;43.80
56172;DHT22;42052;41.634;-0.946;2023-08-12T15:15:46;28.20;43.90
56172;DHT22;42052;41.634;-0.946;2023-08-12T15:18:12;28.20;43.90
56172;DHT22;42052;41.634;-0.946;2023-08-12T15:20:38;28.20;43.90